Justice — WDG2184 — position and weather

sailwx.info

Track history (hours):
 
Tides and Currents Weather Stations Pressure Air Temp Water Temp Dewpoint Dewpoint Depression Visibility Wind Speed Wind Dir Waves Ship Positions

Justice

Owner: Boston Towing & Transportation, Boston, MA. More information available from US FCC via Universal Licensing System and Coast Guard Vessel Documentation Center.

Last reported at 2017-Jun-26 13:31 UTC. Time now 2017-Jun-26 14:08 UTC.
Position N 42°23' W 071°03'.

Length 30 m; draft 5.8 m.

Type: Tug. MMSI: 367513010.

Date/timePositionNaut miles runAvg speedWind from/ knotsBaromVisibWave heightAir tempDewpointWater temp
2017-Jun-26 13:31N 42°23' W 071°03'0 0.0
2017-Jun-26 12:47N 42°23' W 071°03'0 0.0
2017-Jun-26 12:28N 42°23' W 071°03'0 0.0
2017-Jun-26 11:59N 42°23' W 071°03'0 0.0
2017-Jun-26 11:29N 42°23' W 071°03'0 0.0
2017-Jun-26 11:00N 42°23' W 071°03'0 0.0
2017-Jun-26 10:30N 42°23' W 071°03'0 0.0
2017-Jun-26 10:00N 42°23' W 071°03'0 0.0
2017-Jun-26 09:30N 42°23' W 071°03'0 0.0
2017-Jun-26 09:00N 42°23' W 071°03'0 0.0
2017-Jun-26 08:30N 42°23' W 071°03'0 0.0
2017-Jun-26 08:00N 42°23' W 071°03'0 0.0
2017-Jun-26 07:30N 42°23' W 071°03'0 0.0
2017-Jun-26 07:00N 42°23' W 071°03'0 0.0
2017-Jun-26 06:30N 42°23' W 071°03'0 0.0
2017-Jun-26 06:00N 42°23' W 071°03'0 0.0
2017-Jun-26 05:30N 42°23' W 071°03'0 0.0
2017-Jun-26 05:00N 42°23' W 071°03'3 5.0
2017-Jun-26 04:30N 42°21' W 071°01'2 4.2
2017-Jun-26 04:00N 42°20' W 070°58'2 4.0
2017-Jun-26 03:30N 42°21' W 071°01'0 0.3
2017-Jun-26 03:00N 42°21' W 071°01'1 2.0
2017-Jun-26 02:31N 42°21' W 071°02'1 1.8
2017-Jun-26 02:00N 42°22' W 071°03'1 2.4
2017-Jun-26 01:30N 42°23' W 071°04'0 0.5
2017-Jun-26 01:00N 42°23' W 071°03'1 1.6
2017-Jun-26 00:30N 42°23' W 071°03'0 0.1
2017-Jun-26 00:00N 42°23' W 071°03'2 3.4
2017-Jun-25 23:30N 42°24' W 071°01'1 1.3
2017-Jun-25 23:00N 42°23' W 071°01'1 2.9
2017-Jun-25 22:30N 42°22' W 071°03'0 0.9
2017-Jun-25 22:00N 42°23' W 071°03'0 0.0
2017-Jun-25 21:27N 42°23' W 071°03'0 0.0
2017-Jun-25 21:00N 42°23' W 071°03'0 0.0
2017-Jun-25 20:30N 42°23' W 071°03'0 0.0
2017-Jun-25 20:00N 42°23' W 071°03'0 0.0
2017-Jun-25 19:29N 42°23' W 071°03'0 0.0
2017-Jun-25 19:00N 42°23' W 071°03'1 1.6
2017-Jun-25 18:30N 42°22' W 071°03'0 0.2
2017-Jun-25 18:00N 42°22' W 071°03'2 3.1
2017-Jun-25 17:30N 42°23' W 071°01'0 0.9
2017-Jun-25 17:00N 42°23' W 071°02'0 1.0
2017-Jun-25 16:30N 42°23' W 071°03'0 0.0
2017-Jun-25 16:00N 42°23' W 071°03'0 1.0
2017-Jun-25 15:30N 42°23' W 071°03'0 0.8
2017-Jun-25 15:00N 42°23' W 071°04'1 0.9
2017-Jun-25 14:00N 42°23' W 071°03'0 0.0
2017-Jun-25 13:31N 42°23' W 071°03'0 0.0
2017-Jun-25 13:00N 42°23' W 071°03'0 0.0
2017-Jun-25 12:30N 42°23' W 071°03'1 1.6
2017-Jun-25 12:00N 42°23' W 071°04'1 1.6
2017-Jun-25 11:30N 42°23' W 071°03'1 2.4
2017-Jun-25 11:00N 42°24' W 071°01'0 0.1
2017-Jun-25 10:30N 42°24' W 071°01'1 2.9
2017-Jun-25 10:01N 42°23' W 071°03'1 1.9
2017-Jun-25 09:30N 42°23' W 071°02'1 1.2
2017-Jun-25 09:01N 42°24' W 071°01'1 2.7
2017-Jun-25 08:30N 42°23' W 071°03'0 0.0
2017-Jun-25 08:00N 42°23' W 071°03'0 0.0
2017-Jun-25 07:31N 42°23' W 071°03'0 0.0
2017-Jun-25 07:00N 42°23' W 071°03'0 0.0
2017-Jun-25 06:30N 42°23' W 071°03'0 0.0
2017-Jun-25 06:00N 42°23' W 071°03'0 0.0
2017-Jun-25 05:30N 42°23' W 071°03'2 5.0
2017-Jun-25 05:01N 42°21' W 071°01'2 3.8
2017-Jun-25 04:30N 42°20' W 070°59'2 4.2
2017-Jun-25 04:00N 42°21' W 071°01'2 4.9
2017-Jun-25 03:30N 42°23' W 071°03'0 0.0
2017-Jun-25 03:00N 42°23' W 071°03'0 0.0
2017-Jun-25 02:30N 42°23' W 071°03'0 0.0
2017-Jun-25 02:01N 42°23' W 071°03'0 0.0
2017-Jun-25 01:31N 42°23' W 071°03'0 0.0
2017-Jun-25 01:00N 42°23' W 071°03'0 0.0
2017-Jun-25 00:30N 42°23' W 071°03'0 0.0
2017-Jun-25 00:00N 42°23' W 071°03'0 0.0
2017-Jun-24 23:31N 42°23' W 071°03'0 0.0
2017-Jun-24 23:00N 42°23' W 071°03'0 0.0
2017-Jun-24 22:30N 42°23' W 071°03'0 0.0
2017-Jun-24 22:00N 42°23' W 071°03'0 0.0
2017-Jun-24 21:30N 42°23' W 071°03'0 0.0
2017-Jun-24 21:00N 42°23' W 071°03'0 0.0
2017-Jun-24 20:30N 42°23' W 071°03'0 0.0
2017-Jun-24 20:00N 42°23' W 071°03'0 0.0
2017-Jun-24 19:31N 42°23' W 071°03'0 0.0
2017-Jun-24 19:00N 42°23' W 071°03'0 0.0
2017-Jun-24 18:31N 42°23' W 071°03'0 0.0
2017-Jun-24 18:00N 42°23' W 071°03'0 1.0
2017-Jun-24 17:30N 42°22' W 071°03'2 3.8
2017-Jun-24 17:00N 42°21' W 071°02'0 0.0
2017-Jun-24 16:30N 42°21' W 071°02'0 0.0
2017-Jun-24 16:00N 42°21' W 071°02'0 0.0
2017-Jun-24 15:30N 42°21' W 071°02'0 0.0
2017-Jun-24 15:00N 42°21' W 071°02'0 0.0
2017-Jun-24 14:00N 42°21' W 071°02'1 1.8
2017-Jun-24 13:30N 42°21' W 071°02'1 1.4
2017-Jun-24 13:00N 42°22' W 071°03'3 6.9
2017-Jun-24 12:30N 42°20' W 070°59'3 6.2
2017-Jun-24 12:01N 42°18' W 070°55'4 7.8
2017-Jun-24 11:30N 42°15' W 070°58'1 1.2
2017-Jun-24 11:00N 42°14' W 070°58'3 6.8
2017-Jun-24 10:31N 42°17' W 070°56'4 7.1
2017-Jun-24 10:00N 42°20' W 070°59'2 4.2
2017-Jun-24 09:30N 42°21' W 071°01'0 0.0
2017-Jun-24 09:00N 42°21' W 071°01'0 0.0
2017-Jun-24 08:31N 42°21' W 071°01'1 2.0
2017-Jun-24 08:00N 42°21' W 071°02'2 3.4
2017-Jun-24 07:30N 42°23' W 071°03'0 0.4
2017-Jun-24 07:00N 42°23' W 071°03'0 0.0
2017-Jun-24 04:11N 42°23' W 071°03'0 0.0
2017-Jun-24 04:00N 42°23' W 071°03'0 0.0
2017-Jun-24 03:30N 42°23' W 071°03'0 0.0
2017-Jun-24 03:00N 42°23' W 071°03'0 0.0
2017-Jun-24 02:30N 42°23' W 071°03'0 0.0
2017-Jun-24 02:00N 42°23' W 071°03'0 0.0
2017-Jun-24 00:25N 42°23' W 071°03'0 0.0
2017-Jun-24 00:00N 42°23' W 071°03'0 0.0
2017-Jun-23 23:30N 42°23' W 071°03'0 0.0
2017-Jun-23 23:00N 42°23' W 071°03'0 0.0
2017-Jun-23 22:31N 42°23' W 071°03'0 0.0
2017-Jun-23 22:00N 42°23' W 071°03'0 0.0
2017-Jun-23 21:30N 42°23' W 071°03'0 0.0
2017-Jun-23 21:00N 42°23' W 071°03'0 0.0
2017-Jun-23 20:30N 42°23' W 071°03'0 0.0
2017-Jun-23 20:00N 42°23' W 071°03'0 0.0
2017-Jun-23 19:30N 42°23' W 071°03'0 0.0
2017-Jun-23 19:00N 42°23' W 071°03'0 0.0
2017-Jun-23 18:06N 42°23' W 071°03'0 0.0
2017-Jun-23 18:00N 42°23' W 071°03'0 0.1
2017-Jun-23 17:30N 42°23' W 071°03'0 0.1
2017-Jun-23 17:00N 42°23' W 071°03'1 2.2
2017-Jun-23 16:30N 42°22' W 071°02'3 6.4
2017-Jun-23 16:00N 42°20' W 070°59'4 7.0
2017-Jun-23 15:30N 42°17' W 070°56'4 7.3
2017-Jun-23 15:00N 42°14' W 070°58'3 3.3
2017-Jun-23 14:00N 42°17' W 070°56'2 4.5
2017-Jun-23 13:30N 42°19' W 070°55'4 8.2
2017-Jun-23 13:01N 42°20' W 071°00'3 5.7
2017-Jun-23 12:30N 42°23' W 071°03'1 1.1
2017-Jun-23 12:00N 42°22' W 071°03'1 2.6
2017-Jun-23 11:30N 42°21' W 071°02'1 2.9
2017-Jun-23 11:00N 42°23' W 071°03'0 0.6
2017-Jun-23 10:30N 42°23' W 071°03'0 0.0
2017-Jun-23 10:01N 42°23' W 071°03'0 0.0
2017-Jun-23 09:30N 42°23' W 071°03'0 0.0
2017-Jun-23 09:00N 42°23' W 071°03'0 0.0
2017-Jun-23 08:30N 42°23' W 071°03'0 0.0
2017-Jun-23 08:00N 42°23' W 071°03'0 0.0
2017-Jun-23 07:30N 42°23' W 071°03'0 0.0
2017-Jun-23 07:00N 42°23' W 071°03'0 0.0
2017-Jun-23 06:30N 42°23' W 071°03'0 0.0
2017-Jun-23 06:00N 42°23' W 071°03'0 0.0
2017-Jun-23 05:30N 42°23' W 071°03'0 0.0
2017-Jun-23 05:00N 42°23' W 071°03'0 0.0
2017-Jun-23 04:30N 42°23' W 071°03'1 1.1
2017-Jun-23 03:33N 42°23' W 071°04'0 0.0
2017-Jun-23 03:26N 42°23' W 071°04'0 0.1
2017-Jun-23 02:59N 42°23' W 071°04'0 0.1
2017-Jun-23 02:30N 42°23' W 071°04'1 1.6
2017-Jun-23 02:00N 42°23' W 071°03'2 3.4
2017-Jun-23 01:30N 42°21' W 071°02'3 6.2
2017-Jun-23 01:00N 42°20' W 070°58'0 0.2
2017-Jun-23 00:30N 42°20' W 070°58'2 4.7
2017-Jun-23 00:00N 42°21' W 071°01'2 4.3
2017-Jun-22 23:30N 42°23' W 071°03'2 3.5
2017-Jun-22 23:00N 42°24' W 071°01'1 1.3
2017-Jun-22 22:30N 42°23' W 071°01'1 2.7
2017-Jun-22 22:01N 42°23' W 071°03'2 3.2
2017-Jun-22 21:30N 42°24' W 071°01'0 0.6
2017-Jun-22 21:00N 42°24' W 071°01'0 0.0
2017-Jun-22 20:30N 42°24' W 071°01'0 0.1
2017-Jun-22 20:00N 42°24' W 071°01'1 2.2
2017-Jun-22 19:30N 42°23' W 071°02'1 1.2
2017-Jun-22 19:00N 42°23' W 071°03'0 0.0
2017-Jun-22 18:30N 42°23' W 071°03'0 0.0
2017-Jun-22 18:00N 42°23' W 071°03'0 0.0
2017-Jun-22 17:31N 42°23' W 071°03'1 1.6
2017-Jun-22 17:00N 42°22' W 071°03'3 6.9
2017-Jun-22 16:30N 42°20' W 070°59'4 8.4
2017-Jun-22 16:00N 42°22' W 070°54'4 8.7
2017-Jun-22 15:30N 42°25' W 070°50'1 2.4
2017-Jun-22 15:00N 42°25' W 070°48'0 0.3
2017-Jun-22 14:30N 42°25' W 070°48'1 1.2
2017-Jun-22 13:30N 42°25' W 070°50'4 8.7
2017-Jun-22 13:00N 42°22' W 070°54'4 8.2
2017-Jun-22 12:30N 42°20' W 070°59'4 7.4
2017-Jun-22 12:00N 42°22' W 071°03'1 1.2
2017-Jun-22 11:30N 42°22' W 071°02'3 6.7
2017-Jun-22 11:00N 42°20' W 070°59'4 8.0
2017-Jun-22 10:30N 42°19' W 070°53'4 7.0
2017-Jun-22 10:00N 42°16' W 070°56'2 4.5
2017-Jun-22 09:30N 42°15' W 070°59'0 0.5
2017-Jun-22 09:00N 42°15' W 070°59'3 5.7
2017-Jun-22 08:30N 42°17' W 070°56'4 7.0
2017-Jun-22 08:00N 42°20' W 070°57'3 6.0
2017-Jun-22 07:30N 42°21' W 071°01'0 0.0
2017-Jun-22 07:00N 42°21' W 071°01'1 1.8
2017-Jun-22 06:31N 42°21' W 071°02'1 1.1
2017-Jun-22 06:01N 42°21' W 071°01'1 1.8
2017-Jun-22 05:30N 42°22' W 071°02'2 3.2
2017-Jun-22 05:00N 42°23' W 071°02'1 1.2
2017-Jun-22 04:30N 42°23' W 071°01'1 2.8
2017-Jun-22 04:00N 42°23' W 071°03'0 0.0
2017-Jun-22 03:30N 42°23' W 071°03'1 1.3
2017-Jun-22 03:00N 42°23' W 071°03'2 3.4
2017-Jun-22 02:30N 42°21' W 071°02'2 3.2
2017-Jun-22 02:00N 42°23' W 071°03'0 0.0
2017-Jun-22 01:30N 42°23' W 071°03'0 0.0
2017-Jun-22 01:01N 42°23' W 071°03'0 0.0
2017-Jun-22 00:30N 42°23' W 071°03'0 0.0
2017-Jun-22 00:00N 42°23' W 071°03'0 0.1
2017-Jun-21 23:30N 42°23' W 071°03'2 4.3
2017-Jun-21 23:01N 42°21' W 071°01'1 1.2
2017-Jun-21 22:30N 42°21' W 071°02'2 3.6
2017-Jun-21 22:00N 42°23' W 071°03'0 0.0
2017-Jun-21 21:30N 42°23' W 071°03'0 0.0
2017-Jun-21 21:00N 42°23' W 071°03'0 0.0
2017-Jun-21 20:30N 42°23' W 071°03'0 0.6
2017-Jun-21 20:00N 42°23' W 071°02'1 2.3
2017-Jun-21 19:30N 42°24' W 071°01'1 2.4
2017-Jun-21 19:00N 42°23' W 071°03'1 1.5
2017-Jun-21 18:30N 42°23' W 071°02'1 1.7
2017-Jun-21 18:00N 42°23' W 071°03'0 0.0
2017-Jun-21 17:30N 42°23' W 071°03'0 0.0
2017-Jun-21 17:00N 42°23' W 071°03'0 0.0
2017-Jun-21 16:30N 42°23' W 071°03'0 0.0
2017-Jun-21 16:00N 42°23' W 071°03'0 0.0
2017-Jun-21 15:31N 42°23' W 071°03'0 0.0
2017-Jun-21 15:00N 42°23' W 071°03'0 0.0
2017-Jun-21 14:30N 42°23' W 071°03'2 1.7
2017-Jun-21 13:30N 42°21' W 071°02'1 1.7
2017-Jun-21 13:00N 42°21' W 071°01'1 2.4
2017-Jun-21 12:30N 42°21' W 071°02'2 4.0
2017-Jun-21 12:00N 42°23' W 071°01'1 1.3
2017-Jun-21 11:31N 42°24' W 071°01'1 2.5
2017-Jun-21 11:00N 42°23' W 071°02'2 4.0
2017-Jun-21 10:31N 42°21' W 071°02'2 4.4
2017-Jun-21 10:00N 42°23' W 071°01'1 1.2
2017-Jun-21 09:30N 42°24' W 071°01'1 2.0
2017-Jun-21 09:01N 42°23' W 071°02'2 3.0
2017-Jun-21 08:30N 42°22' W 071°03'1 1.2
2017-Jun-21 08:00N 42°21' W 071°02'2 3.7
2017-Jun-21 07:31N 42°23' W 071°03'1 2.6
2017-Jun-21 07:00N 42°24' W 071°01'0 0.3
2017-Jun-21 06:30N 42°23' W 071°01'1 2.6
2017-Jun-21 06:00N 42°23' W 071°03'1 1.9
2017-Jun-21 05:30N 42°23' W 071°01'1 1.8
2017-Jun-21 05:00N 42°23' W 071°03'1 3.0
2017-Jun-21 04:30N 42°24' W 071°01'0 0.4
2017-Jun-21 04:00N 42°24' W 071°01'0 0.0
2017-Jun-21 03:30N 42°24' W 071°01'2 3.3
2017-Jun-21 03:00N 42°23' W 071°03'0 0.0
2017-Jun-21 02:30N 42°23' W 071°03'0 0.0
2017-Jun-21 02:01N 42°23' W 071°03'0 0.0
2017-Jun-21 01:30N 42°23' W 071°03'0 0.0
2017-Jun-21 01:00N 42°23' W 071°03'0 0.0
2017-Jun-21 00:30N 42°23' W 071°03'0 0.0
2017-Jun-21 00:00N 42°23' W 071°03'0 0.0
2017-Jun-20 23:29N 42°23' W 071°03'0 0.0
2017-Jun-20 23:01N 42°23' W 071°03'0 0.0
2017-Jun-20 22:30N 42°23' W 071°03'0 0.0
2017-Jun-20 22:00N 42°23' W 071°03'0 0.0
2017-Jun-20 21:30N 42°23' W 071°03'0 0.0
2017-Jun-20 21:00N 42°23' W 071°03'0 0.0
2017-Jun-20 20:30N 42°23' W 071°03'0 0.0
2017-Jun-20 20:00N 42°23' W 071°03'0 0.0
2017-Jun-20 19:30N 42°23' W 071°03'0 0.0
2017-Jun-20 19:00N 42°23' W 071°03'0 0.0
2017-Jun-20 18:30N 42°23' W 071°03'0 0.0
2017-Jun-20 18:00N 42°23' W 071°03'0 0.8
2017-Jun-20 17:30N 42°23' W 071°02'1 1.9
2017-Jun-20 17:01N 42°24' W 071°01'1 2.6
2017-Jun-20 16:31N 42°23' W 071°03'0 0.0
2017-Jun-20 16:00N 42°23' W 071°03'0 0.0
2017-Jun-20 15:30N 42°23' W 071°03'0 0.0
2017-Jun-20 15:00N 42°23' W 071°03'1 1.9
2017-Jun-20 14:30N 42°22' W 071°03'1 1.4
2017-Jun-20 13:31N 42°21' W 071°02'2 4.2
2017-Jun-20 13:00N 42°23' W 071°03'1 2.4
2017-Jun-20 12:31N 42°21' W 071°02'1 1.8
2017-Jun-20 12:00N 42°21' W 071°02'0 0.6
2017-Jun-20 11:30N 42°21' W 071°02'2 3.4
2017-Jun-20 11:00N 42°20' W 070°59'1 1.5
2017-Jun-20 10:30N 42°20' W 070°58'3 6.1
2017-Jun-20 10:01N 42°21' W 071°02'1 2.9
2017-Jun-20 09:30N 42°23' W 071°03'1 1.3
2017-Jun-20 09:00N 42°23' W 071°02'1 2.0
2017-Jun-20 08:30N 42°24' W 071°01'1 2.1
2017-Jun-20 08:00N 42°23' W 071°02'0 0.5
2017-Jun-20 07:30N 42°23' W 071°01'1 1.7
2017-Jun-20 07:01N 42°24' W 071°01'2 3.4
2017-Jun-20 06:31N 42°23' W 071°03'2 4.5
2017-Jun-20 06:00N 42°21' W 071°01'2 4.3
2017-Jun-20 05:30N 42°23' W 071°03'0 0.7
2017-Jun-20 05:00N 42°23' W 071°03'0 0.6
2017-Jun-20 04:30N 42°23' W 071°03'1 2.7
2017-Jun-20 04:00N 42°24' W 071°01'0 0.2
2017-Jun-20 03:30N 42°24' W 071°01'2 3.4
2017-Jun-20 03:01N 42°23' W 071°03'0 0.3
2017-Jun-20 02:31N 42°22' W 071°03'1 2.4
2017-Jun-20 02:00N 42°21' W 071°02'4 8.6
2017-Jun-20 01:30N 42°20' W 070°57'5 9.0
2017-Jun-20 01:00N 42°16' W 070°56'2 3.6
2017-Jun-20 00:31N 42°14' W 070°58'0 0.2
2017-Jun-19 23:59N 42°14' W 070°58'1 1.3
2017-Jun-19 23:30N 42°15' W 070°58'3 5.0
2017-Jun-19 23:00N 42°17' W 070°56'3 5.1
2017-Jun-19 22:30N 42°19' W 070°54'5 9.9
2017-Jun-19 22:00N 42°21' W 071°01'0 0.8
2017-Jun-19 21:31N 42°21' W 071°01'0 0.1
2017-Jun-19 21:01N 42°21' W 071°01'3 4.6
2017-Jun-19 20:27N 42°23' W 071°03'0 0.0
2017-Jun-19 19:55N 42°23' W 071°03'0 0.0
2017-Jun-19 19:26N 42°23' W 071°03'0 0.1
2017-Jun-19 19:00N 42°23' W 071°03'0 0.0
2017-Jun-19 18:30N 42°23' W 071°03'0 0.0
2017-Jun-19 18:00N 42°23' W 071°03'0 0.0
2017-Jun-19 17:30N 42°23' W 071°03'1 1.1
2017-Jun-19 17:00N 42°23' W 071°03'1 1.1
2017-Jun-19 16:30N 42°23' W 071°03'0 0.0
2017-Jun-19 16:00N 42°23' W 071°03'0 0.0
2017-Jun-19 15:30N 42°23' W 071°03'0 0.0
2017-Jun-19 15:00N 42°23' W 071°03'0 0.0
2017-Jun-19 14:26N 42°23' W 071°03'0 0.0
2017-Jun-19 13:30N 42°23' W 071°03'0 0.0
2017-Jun-19 13:00N 42°23' W 071°03'0 0.0
2017-Jun-19 12:30N 42°23' W 071°03'0 0.0
2017-Jun-19 12:00N 42°23' W 071°03'2 3.6
2017-Jun-19 11:30N 42°21' W 071°02'1 1.6
2017-Jun-19 11:00N 42°21' W 071°01'1 1.7
2017-Jun-19 10:30N 42°20' W 071°00'1 1.5
2017-Jun-19 10:00N 42°21' W 071°01'0 0.4
2017-Jun-19 09:30N 42°21' W 071°01'0 0.1
2017-Jun-19 09:01N 42°21' W 071°01'0 0.4
2017-Jun-19 08:30N 42°21' W 071°01'0 0.0
2017-Jun-19 08:01N 42°21' W 071°01'2 3.6
2017-Jun-19 07:30N 42°22' W 071°03'1 2.7
2017-Jun-19 07:00N 42°23' W 071°02'0 0.0
2017-Jun-19 06:28N 42°23' W 071°02'1 1.8
2017-Jun-19 06:00N 42°23' W 071°03'0 0.0
2017-Jun-19 05:30N 42°23' W 071°03'0 0.0
2017-Jun-19 05:00N 42°23' W 071°03'0 0.0
2017-Jun-19 04:30N 42°23' W 071°03'0 0.0
2017-Jun-19 04:00N 42°23' W 071°03'0 0.0
2017-Jun-19 03:30N 42°23' W 071°03'0 0.0
2017-Jun-19 03:00N 42°23' W 071°03'0 0.0
2017-Jun-19 02:30N 42°23' W 071°03'0 0.0
2017-Jun-19 02:00N 42°23' W 071°03'0 0.0
2017-Jun-19 01:30N 42°23' W 071°03'0 0.0
2017-Jun-19 01:00N 42°23' W 071°03'0 0.0
2017-Jun-19 00:31N 42°23' W 071°03'0 0.0
2017-Jun-19 00:00N 42°23' W 071°03'0 0.0
2017-Jun-18 23:30N 42°23' W 071°03'0 0.0
2017-Jun-18 23:00N 42°23' W 071°03'0 0.0
2017-Jun-18 22:30N 42°23' W 071°03'1 2.8
2017-Jun-18 22:00N 42°21' W 071°02'1 2.8
2017-Jun-18 21:30N 42°23' W 071°03'0 0.0
2017-Jun-18 21:00N 42°23' W 071°03'0 0.0
2017-Jun-18 20:30N 42°23' W 071°03'0 0.0
2017-Jun-18 20:00N 42°23' W 071°03'0 0.0
2017-Jun-18 19:30N 42°23' W 071°03'0 0.0
2017-Jun-18 19:01N 42°23' W 071°03'4 7.3
2017-Jun-18 18:30N 42°20' W 070°59'3 6.6
2017-Jun-18 18:00N 42°18' W 070°56'4 7.2
2017-Jun-18 17:30N 42°15' W 070°57'0 0.9
2017-Jun-18 16:57N 42°15' W 070°58'0 0.9
2017-Jun-18 16:30N 42°15' W 070°58'0 0.0
2017-Jun-18 15:50N 42°15' W 070°58'0 0.0
2017-Jun-18 15:29N 42°15' W 070°58'0 0.0
2017-Jun-18 15:01N 42°15' W 070°58'3 3.1
2017-Jun-18 14:00N 42°17' W 070°56'3 6.1
2017-Jun-18 13:30N 42°15' W 070°58'0 0.8
2017-Jun-18 13:00N 42°14' W 070°58'0 0.3
2017-Jun-18 11:32N 42°15' W 070°58'0 0.0
2017-Jun-18 11:30N 42°15' W 070°58'0 0.0
2017-Jun-18 10:55N 42°15' W 070°58'2 4.5
2017-Jun-18 10:30N 42°16' W 070°56'4 8.5
2017-Jun-18 10:00N 42°20' W 070°56'3 6.9
2017-Jun-18 09:30N 42°21' W 071°01'2 4.4
2017-Jun-18 09:00N 42°20' W 070°58'2 4.7
2017-Jun-18 08:30N 42°21' W 071°01'0 0.0
2017-Jun-18 08:00N 42°21' W 071°01'0 0.7
2017-Jun-18 07:30N 42°21' W 071°01'0 0.4
2017-Jun-18 07:00N 42°21' W 071°01'2 4.9
2017-Jun-18 06:30N 42°23' W 071°03'0 0.3
2017-Jun-18 06:00N 42°23' W 071°03'0 0.0
2017-Jun-18 05:31N 42°23' W 071°03'2 4.2
2017-Jun-18 05:00N 42°21' W 071°01'2 3.8
2017-Jun-18 04:30N 42°22' W 071°03'0 0.8
2017-Jun-18 04:00N 42°23' W 071°03'0 0.0
2017-Jun-18 03:30N 42°23' W 071°03'0 0.0
2017-Jun-18 03:00N 42°23' W 071°03'0 0.0
2017-Jun-18 02:30N 42°23' W 071°03'0 0.1
2017-Jun-18 02:00N 42°23' W 071°03'1 1.3
2017-Jun-18 01:30N 42°23' W 071°02'0 0.3
2017-Jun-18 00:46N 42°23' W 071°02'1 3.0
2017-Jun-18 00:30N 42°23' W 071°03'4 7.3
2017-Jun-18 00:00N 42°20' W 070°60'4 7.7
2017-Jun-17 23:30N 42°18' W 070°55'3 3.3
2017-Jun-17 22:28N 42°15' W 070°58'2 4.7
2017-Jun-17 22:01N 42°17' W 070°56'3 5.3
2017-Jun-17 21:30N 42°19' W 070°54'4 8.1
2017-Jun-17 21:00N 42°15' W 070°57'2 3.3
2017-Jun-17 20:31N 42°14' W 070°58'1 2.4
2017-Jun-17 20:01N 42°15' W 070°57'4 8.0
2017-Jun-17 19:30N 42°19' W 070°55'1 2.6
2017-Jun-17 19:00N 42°20' W 070°56'4 8.1
2017-Jun-17 18:30N 42°21' W 071°02'0 0.5
2017-Jun-17 18:00N 42°21' W 071°02'0 0.0
2017-Jun-17 17:30N 42°21' W 071°02'0 0.8
2017-Jun-17 17:00N 42°21' W 071°01'0 0.1
2017-Jun-17 16:31N 42°21' W 071°01'0 0.0
2017-Jun-17 16:00N 42°21' W 071°01'0 0.0
2017-Jun-17 15:30N 42°21' W 071°01'0 0.0
2017-Jun-17 15:00N 42°21' W 071°01'0 0.4
2017-Jun-17 14:01N 42°21' W 071°02'0 0.0
2017-Jun-17 13:30N 42°21' W 071°02'0 0.0
2017-Jun-17 13:00N 42°21' W 071°02'0 0.0
2017-Jun-17 12:30N 42°21' W 071°02'0 0.0
2017-Jun-17 12:00N 42°21' W 071°02'0 0.0
2017-Jun-17 11:30N 42°21' W 071°02'1 1.1
2017-Jun-17 11:00N 42°21' W 071°01'0 0.4
2017-Jun-17 10:30N 42°21' W 071°01'2 4.2
2017-Jun-17 10:01N 42°20' W 070°58'4 8.1
2017-Jun-17 09:31N 42°22' W 071°03'2 3.0
2017-Jun-17 09:00N 42°23' W 071°01'1 2.4
2017-Jun-17 08:30N 42°23' W 071°03'2 3.0
2017-Jun-17 08:00N 42°21' W 071°02'2 3.6
2017-Jun-17 07:30N 42°23' W 071°02'1 1.5
2017-Jun-17 07:01N 42°23' W 071°01'1 1.6
2017-Jun-17 06:30N 42°23' W 071°03'0 0.3
2017-Jun-17 05:43N 42°23' W 071°03'0 0.0
2017-Jun-17 05:29N 42°23' W 071°03'0 0.0
2017-Jun-17 04:58N 42°23' W 071°03'0 0.0
2017-Jun-17 04:30N 42°23' W 071°03'0 0.0
2017-Jun-17 04:01N 42°23' W 071°03'0 0.0
2017-Jun-17 03:16N 42°23' W 071°03'0 0.0
2017-Jun-17 03:00N 42°23' W 071°03'0 0.0
2017-Jun-17 02:30N 42°23' W 071°03'1 1.6
2017-Jun-17 02:01N 42°23' W 071°03'1 1.6
2017-Jun-17 01:30N 42°23' W 071°03'0 0.0
2017-Jun-17 01:01N 42°23' W 071°03'0 0.0
2017-Jun-17 00:29N 42°23' W 071°03'0 0.0
2017-Jun-17 00:00N 42°23' W 071°03'0 0.1
2017-Jun-16 23:30N 42°23' W 071°03'0 0.0
2017-Jun-16 23:00N 42°23' W 071°03'0 0.0
2017-Jun-16 22:29N 42°23' W 071°03'0 0.0
2017-Jun-16 21:55N 42°23' W 071°03'0 0.0
2017-Jun-16 21:27N 42°23' W 071°03'0 0.0
2017-Jun-16 20:57N 42°23' W 071°03'0 0.0
2017-Jun-16 20:21N 42°23' W 071°03'0 0.0
2017-Jun-16 20:00N 42°23' W 071°03'0 0.0
2017-Jun-16 19:30N 42°23' W 071°03'2 3.3
2017-Jun-16 19:00N 42°21' W 071°02'1 1.3
2017-Jun-16 18:30N 42°21' W 071°02'0 0.6
2017-Jun-16 18:00N 42°21' W 071°01'0 0.0
2017-Jun-16 17:30N 42°21' W 071°01'0 0.0
2017-Jun-16 17:00N 42°21' W 071°01'0 0.0
2017-Jun-16 16:30N 42°21' W 071°01'1 1.4
2017-Jun-16 16:00N 42°21' W 071°02'2 3.4
2017-Jun-16 15:30N 42°23' W 071°03'0 0.0
2017-Jun-16 15:00N 42°23' W 071°03'0 0.0
2017-Jun-16 14:30N 42°23' W 071°03'  
Track history (hours):
 
Tides and Currents Weather Stations Pressure Air Temp Water Temp Dewpoint Dewpoint Depression Visibility Wind Speed Wind Dir Waves Ship Positions

Justice

Owner: Boston Towing & Transportation, Boston, MA. More information available from US FCC via Universal Licensing System and Coast Guard Vessel Documentation Center.

Last reported at 2017-Jun-26 13:31 UTC. Time now 2017-Jun-26 14:08 UTC.
Position N 42°23' W 071°03'.

Length 30 m; draft 5.8 m.

Type: Tug. MMSI: 367513010.

Date/timePositionNaut miles runAvg speedWind from/ knotsBaromVisibWave heightAir tempDewpointWater temp
2017-Jun-26 13:31N 42°23' W 071°03'0 0.0
2017-Jun-26 12:47N 42°23' W 071°03'0 0.0
2017-Jun-26 12:28N 42°23' W 071°03'0 0.0
2017-Jun-26 11:59N 42°23' W 071°03'0 0.0
2017-Jun-26 11:29N 42°23' W 071°03'0 0.0
2017-Jun-26 11:00N 42°23' W 071°03'0 0.0
2017-Jun-26 10:30N 42°23' W 071°03'0 0.0
2017-Jun-26 10:00N 42°23' W 071°03'0 0.0
2017-Jun-26 09:30N 42°23' W 071°03'0 0.0
2017-Jun-26 09:00N 42°23' W 071°03'0 0.0
2017-Jun-26 08:30N 42°23' W 071°03'0 0.0
2017-Jun-26 08:00N 42°23' W 071°03'0 0.0
2017-Jun-26 07:30N 42°23' W 071°03'0 0.0
2017-Jun-26 07:00N 42°23' W 071°03'0 0.0
2017-Jun-26 06:30N 42°23' W 071°03'0 0.0
2017-Jun-26 06:00N 42°23' W 071°03'0 0.0
2017-Jun-26 05:30N 42°23' W 071°03'0 0.0
2017-Jun-26 05:00N 42°23' W 071°03'3 5.0
2017-Jun-26 04:30N 42°21' W 071°01'2 4.2
2017-Jun-26 04:00N 42°20' W 070°58'2 4.0
2017-Jun-26 03:30N 42°21' W 071°01'0 0.3
2017-Jun-26 03:00N 42°21' W 071°01'1 2.0
2017-Jun-26 02:31N 42°21' W 071°02'1 1.8
2017-Jun-26 02:00N 42°22' W 071°03'1 2.4
2017-Jun-26 01:30N 42°23' W 071°04'0 0.5
2017-Jun-26 01:00N 42°23' W 071°03'1 1.6
2017-Jun-26 00:30N 42°23' W 071°03'0 0.1
2017-Jun-26 00:00N 42°23' W 071°03'2 3.4
2017-Jun-25 23:30N 42°24' W 071°01'1 1.3
2017-Jun-25 23:00N 42°23' W 071°01'1 2.9
2017-Jun-25 22:30N 42°22' W 071°03'0 0.9
2017-Jun-25 22:00N 42°23' W 071°03'0 0.0
2017-Jun-25 21:27N 42°23' W 071°03'0 0.0
2017-Jun-25 21:00N 42°23' W 071°03'0 0.0
2017-Jun-25 20:30N 42°23' W 071°03'0 0.0
2017-Jun-25 20:00N 42°23' W 071°03'0 0.0
2017-Jun-25 19:29N 42°23' W 071°03'0 0.0
2017-Jun-25 19:00N 42°23' W 071°03'1 1.6
2017-Jun-25 18:30N 42°22' W 071°03'0 0.2
2017-Jun-25 18:00N 42°22' W 071°03'2 3.1
2017-Jun-25 17:30N 42°23' W 071°01'0 0.9
2017-Jun-25 17:00N 42°23' W 071°02'0 1.0
2017-Jun-25 16:30N 42°23' W 071°03'0 0.0
2017-Jun-25 16:00N 42°23' W 071°03'0 1.0
2017-Jun-25 15:30N 42°23' W 071°03'0 0.8
2017-Jun-25 15:00N 42°23' W 071°04'1 0.9
2017-Jun-25 14:00N 42°23' W 071°03'0 0.0
2017-Jun-25 13:31N 42°23' W 071°03'0 0.0
2017-Jun-25 13:00N 42°23' W 071°03'0 0.0
2017-Jun-25 12:30N 42°23' W 071°03'1 1.6
2017-Jun-25 12:00N 42°23' W 071°04'1 1.6
2017-Jun-25 11:30N 42°23' W 071°03'1 2.4
2017-Jun-25 11:00N 42°24' W 071°01'0 0.1
2017-Jun-25 10:30N 42°24' W 071°01'1 2.9
2017-Jun-25 10:01N 42°23' W 071°03'1 1.9
2017-Jun-25 09:30N 42°23' W 071°02'1 1.2
2017-Jun-25 09:01N 42°24' W 071°01'1 2.7
2017-Jun-25 08:30N 42°23' W 071°03'0 0.0
2017-Jun-25 08:00N 42°23' W 071°03'0 0.0
2017-Jun-25 07:31N 42°23' W 071°03'0 0.0
2017-Jun-25 07:00N 42°23' W 071°03'0 0.0
2017-Jun-25 06:30N 42°23' W 071°03'0 0.0
2017-Jun-25 06:00N 42°23' W 071°03'0 0.0
2017-Jun-25 05:30N 42°23' W 071°03'2 5.0
2017-Jun-25 05:01N 42°21' W 071°01'2 3.8
2017-Jun-25 04:30N 42°20' W 070°59'2 4.2
2017-Jun-25 04:00N 42°21' W 071°01'2 4.9
2017-Jun-25 03:30N 42°23' W 071°03'0 0.0
2017-Jun-25 03:00N 42°23' W 071°03'0 0.0
2017-Jun-25 02:30N 42°23' W 071°03'0 0.0
2017-Jun-25 02:01N 42°23' W 071°03'0 0.0
2017-Jun-25 01:31N 42°23' W 071°03'0 0.0
2017-Jun-25 01:00N 42°23' W 071°03'0 0.0
2017-Jun-25 00:30N 42°23' W 071°03'0 0.0
2017-Jun-25 00:00N 42°23' W 071°03'0 0.0
2017-Jun-24 23:31N 42°23' W 071°03'0 0.0
2017-Jun-24 23:00N 42°23' W 071°03'0 0.0
2017-Jun-24 22:30N 42°23' W 071°03'0 0.0
2017-Jun-24 22:00N 42°23' W 071°03'0 0.0
2017-Jun-24 21:30N 42°23' W 071°03'0 0.0
2017-Jun-24 21:00N 42°23' W 071°03'0 0.0
2017-Jun-24 20:30N 42°23' W 071°03'0 0.0
2017-Jun-24 20:00N 42°23' W 071°03'0 0.0
2017-Jun-24 19:31N 42°23' W 071°03'0 0.0
2017-Jun-24 19:00N 42°23' W 071°03'0 0.0
2017-Jun-24 18:31N 42°23' W 071°03'0 0.0
2017-Jun-24 18:00N 42°23' W 071°03'0 1.0
2017-Jun-24 17:30N 42°22' W 071°03'2 3.8
2017-Jun-24 17:00N 42°21' W 071°02'0 0.0
2017-Jun-24 16:30N 42°21' W 071°02'0 0.0
2017-Jun-24 16:00N 42°21' W 071°02'0 0.0
2017-Jun-24 15:30N 42°21' W 071°02'0 0.0
2017-Jun-24 15:00N 42°21' W 071°02'0 0.0
2017-Jun-24 14:00N 42°21' W 071°02'1 1.8
2017-Jun-24 13:30N 42°21' W 071°02'1 1.4
2017-Jun-24 13:00N 42°22' W 071°03'3 6.9
2017-Jun-24 12:30N 42°20' W 070°59'3 6.2
2017-Jun-24 12:01N 42°18' W 070°55'4 7.8
2017-Jun-24 11:30N 42°15' W 070°58'1 1.2
2017-Jun-24 11:00N 42°14' W 070°58'3 6.8
2017-Jun-24 10:31N 42°17' W 070°56'4 7.1
2017-Jun-24 10:00N 42°20' W 070°59'2 4.2
2017-Jun-24 09:30N 42°21' W 071°01'0 0.0
2017-Jun-24 09:00N 42°21' W 071°01'0 0.0
2017-Jun-24 08:31N 42°21' W 071°01'1 2.0
2017-Jun-24 08:00N 42°21' W 071°02'2 3.4
2017-Jun-24 07:30N 42°23' W 071°03'0 0.4
2017-Jun-24 07:00N 42°23' W 071°03'0 0.0
2017-Jun-24 04:11N 42°23' W 071°03'0 0.0
2017-Jun-24 04:00N 42°23' W 071°03'0 0.0
2017-Jun-24 03:30N 42°23' W 071°03'0 0.0
2017-Jun-24 03:00N 42°23' W 071°03'0 0.0
2017-Jun-24 02:30N 42°23' W 071°03'0 0.0
2017-Jun-24 02:00N 42°23' W 071°03'0 0.0
2017-Jun-24 00:25N 42°23' W 071°03'0 0.0
2017-Jun-24 00:00N 42°23' W 071°03'0 0.0
2017-Jun-23 23:30N 42°23' W 071°03'0 0.0
2017-Jun-23 23:00N 42°23' W 071°03'0 0.0
2017-Jun-23 22:31N 42°23' W 071°03'0 0.0
2017-Jun-23 22:00N 42°23' W 071°03'0 0.0
2017-Jun-23 21:30N 42°23' W 071°03'0 0.0
2017-Jun-23 21:00N 42°23' W 071°03'0 0.0
2017-Jun-23 20:30N 42°23' W 071°03'0 0.0
2017-Jun-23 20:00N 42°23' W 071°03'0 0.0
2017-Jun-23 19:30N 42°23' W 071°03'0 0.0
2017-Jun-23 19:00N 42°23' W 071°03'0 0.0
2017-Jun-23 18:06N 42°23' W 071°03'0 0.0
2017-Jun-23 18:00N 42°23' W 071°03'0 0.1
2017-Jun-23 17:30N 42°23' W 071°03'0 0.1
2017-Jun-23 17:00N 42°23' W 071°03'1 2.2
2017-Jun-23 16:30N 42°22' W 071°02'3 6.4
2017-Jun-23 16:00N 42°20' W 070°59'4 7.0
2017-Jun-23 15:30N 42°17' W 070°56'4 7.3
2017-Jun-23 15:00N 42°14' W 070°58'3 3.3
2017-Jun-23 14:00N 42°17' W 070°56'2 4.5
2017-Jun-23 13:30N 42°19' W 070°55'4 8.2
2017-Jun-23 13:01N 42°20' W 071°00'3 5.7
2017-Jun-23 12:30N 42°23' W 071°03'1 1.1
2017-Jun-23 12:00N 42°22' W 071°03'1 2.6
2017-Jun-23 11:30N 42°21' W 071°02'1 2.9
2017-Jun-23 11:00N 42°23' W 071°03'0 0.6
2017-Jun-23 10:30N 42°23' W 071°03'0 0.0
2017-Jun-23 10:01N 42°23' W 071°03'0 0.0
2017-Jun-23 09:30N 42°23' W 071°03'0 0.0
2017-Jun-23 09:00N 42°23' W 071°03'0 0.0
2017-Jun-23 08:30N 42°23' W 071°03'0 0.0
2017-Jun-23 08:00N 42°23' W 071°03'0 0.0
2017-Jun-23 07:30N 42°23' W 071°03'0 0.0
2017-Jun-23 07:00N 42°23' W 071°03'0 0.0
2017-Jun-23 06:30N 42°23' W 071°03'0 0.0
2017-Jun-23 06:00N 42°23' W 071°03'0 0.0
2017-Jun-23 05:30N 42°23' W 071°03'0 0.0
2017-Jun-23 05:00N 42°23' W 071°03'0 0.0
2017-Jun-23 04:30N 42°23' W 071°03'1 1.1
2017-Jun-23 03:33N 42°23' W 071°04'0 0.0
2017-Jun-23 03:26N 42°23' W 071°04'0 0.1
2017-Jun-23 02:59N 42°23' W 071°04'0 0.1
2017-Jun-23 02:30N 42°23' W 071°04'1 1.6
2017-Jun-23 02:00N 42°23' W 071°03'2 3.4
2017-Jun-23 01:30N 42°21' W 071°02'3 6.2
2017-Jun-23 01:00N 42°20' W 070°58'0 0.2
2017-Jun-23 00:30N 42°20' W 070°58'2 4.7
2017-Jun-23 00:00N 42°21' W 071°01'2 4.3
2017-Jun-22 23:30N 42°23' W 071°03'2 3.5
2017-Jun-22 23:00N 42°24' W 071°01'1 1.3
2017-Jun-22 22:30N 42°23' W 071°01'1 2.7
2017-Jun-22 22:01N 42°23' W 071°03'2 3.2
2017-Jun-22 21:30N 42°24' W 071°01'0 0.6
2017-Jun-22 21:00N 42°24' W 071°01'0 0.0
2017-Jun-22 20:30N 42°24' W 071°01'0 0.1
2017-Jun-22 20:00N 42°24' W 071°01'1 2.2
2017-Jun-22 19:30N 42°23' W 071°02'1 1.2
2017-Jun-22 19:00N 42°23' W 071°03'0 0.0
2017-Jun-22 18:30N 42°23' W 071°03'0 0.0
2017-Jun-22 18:00N 42°23' W 071°03'0 0.0
2017-Jun-22 17:31N 42°23' W 071°03'1 1.6
2017-Jun-22 17:00N 42°22' W 071°03'3 6.9
2017-Jun-22 16:30N 42°20' W 070°59'4 8.4
2017-Jun-22 16:00N 42°22' W 070°54'4 8.7
2017-Jun-22 15:30N 42°25' W 070°50'1 2.4
2017-Jun-22 15:00N 42°25' W 070°48'0 0.3
2017-Jun-22 14:30N 42°25' W 070°48'1 1.2
2017-Jun-22 13:30N 42°25' W 070°50'4 8.7
2017-Jun-22 13:00N 42°22' W 070°54'4 8.2
2017-Jun-22 12:30N 42°20' W 070°59'4 7.4
2017-Jun-22 12:00N 42°22' W 071°03'1 1.2
2017-Jun-22 11:30N 42°22' W 071°02'3 6.7
2017-Jun-22 11:00N 42°20' W 070°59'4 8.0
2017-Jun-22 10:30N 42°19' W 070°53'4 7.0
2017-Jun-22 10:00N 42°16' W 070°56'2 4.5
2017-Jun-22 09:30N 42°15' W 070°59'0 0.5
2017-Jun-22 09:00N 42°15' W 070°59'3 5.7
2017-Jun-22 08:30N 42°17' W 070°56'4 7.0
2017-Jun-22 08:00N 42°20' W 070°57'3 6.0
2017-Jun-22 07:30N 42°21' W 071°01'0 0.0
2017-Jun-22 07:00N 42°21' W 071°01'1 1.8
2017-Jun-22 06:31N 42°21' W 071°02'1 1.1
2017-Jun-22 06:01N 42°21' W 071°01'1 1.8
2017-Jun-22 05:30N 42°22' W 071°02'2 3.2
2017-Jun-22 05:00N 42°23' W 071°02'1 1.2
2017-Jun-22 04:30N 42°23' W 071°01'1 2.8
2017-Jun-22 04:00N 42°23' W 071°03'0 0.0
2017-Jun-22 03:30N 42°23' W 071°03'1 1.3
2017-Jun-22 03:00N 42°23' W 071°03'2 3.4
2017-Jun-22 02:30N 42°21' W 071°02'2 3.2
2017-Jun-22 02:00N 42°23' W 071°03'0 0.0
2017-Jun-22 01:30N 42°23' W 071°03'0 0.0
2017-Jun-22 01:01N 42°23' W 071°03'0 0.0
2017-Jun-22 00:30N 42°23' W 071°03'0 0.0
2017-Jun-22 00:00N 42°23' W 071°03'0 0.1
2017-Jun-21 23:30N 42°23' W 071°03'2 4.3
2017-Jun-21 23:01N 42°21' W 071°01'1 1.2
2017-Jun-21 22:30N 42°21' W 071°02'2 3.6
2017-Jun-21 22:00N 42°23' W 071°03'0 0.0
2017-Jun-21 21:30N 42°23' W 071°03'0 0.0
2017-Jun-21 21:00N 42°23' W 071°03'0 0.0
2017-Jun-21 20:30N 42°23' W 071°03'0 0.6
2017-Jun-21 20:00N 42°23' W 071°02'1 2.3
2017-Jun-21 19:30N 42°24' W 071°01'1 2.4
2017-Jun-21 19:00N 42°23' W 071°03'1 1.5
2017-Jun-21 18:30N 42°23' W 071°02'1 1.7
2017-Jun-21 18:00N 42°23' W 071°03'0 0.0
2017-Jun-21 17:30N 42°23' W 071°03'0 0.0
2017-Jun-21 17:00N 42°23' W 071°03'0 0.0
2017-Jun-21 16:30N 42°23' W 071°03'0 0.0
2017-Jun-21 16:00N 42°23' W 071°03'0 0.0
2017-Jun-21 15:31N 42°23' W 071°03'0 0.0
2017-Jun-21 15:00N 42°23' W 071°03'0 0.0
2017-Jun-21 14:30N 42°23' W 071°03'2 1.7
2017-Jun-21 13:30N 42°21' W 071°02'1 1.7
2017-Jun-21 13:00N 42°21' W 071°01'1 2.4
2017-Jun-21 12:30N 42°21' W 071°02'2 4.0
2017-Jun-21 12:00N 42°23' W 071°01'1 1.3
2017-Jun-21 11:31N 42°24' W 071°01'1 2.5
2017-Jun-21 11:00N 42°23' W 071°02'2 4.0
2017-Jun-21 10:31N 42°21' W 071°02'2 4.4
2017-Jun-21 10:00N 42°23' W 071°01'1 1.2
2017-Jun-21 09:30N 42°24' W 071°01'1 2.0
2017-Jun-21 09:01N 42°23' W 071°02'2 3.0
2017-Jun-21 08:30N 42°22' W 071°03'1 1.2
2017-Jun-21 08:00N 42°21' W 071°02'2 3.7
2017-Jun-21 07:31N 42°23' W 071°03'1 2.6
2017-Jun-21 07:00N 42°24' W 071°01'0 0.3
2017-Jun-21 06:30N 42°23' W 071°01'1 2.6
2017-Jun-21 06:00N 42°23' W 071°03'1 1.9
2017-Jun-21 05:30N 42°23' W 071°01'1 1.8
2017-Jun-21 05:00N 42°23' W 071°03'1 3.0
2017-Jun-21 04:30N 42°24' W 071°01'0 0.4
2017-Jun-21 04:00N 42°24' W 071°01'0 0.0
2017-Jun-21 03:30N 42°24' W 071°01'2 3.3
2017-Jun-21 03:00N 42°23' W 071°03'0 0.0
2017-Jun-21 02:30N 42°23' W 071°03'0 0.0
2017-Jun-21 02:01N 42°23' W 071°03'0 0.0
2017-Jun-21 01:30N 42°23' W 071°03'0 0.0
2017-Jun-21 01:00N 42°23' W 071°03'0 0.0
2017-Jun-21 00:30N 42°23' W 071°03'0 0.0
2017-Jun-21 00:00N 42°23' W 071°03'0 0.0
2017-Jun-20 23:29N 42°23' W 071°03'0 0.0
2017-Jun-20 23:01N 42°23' W 071°03'0 0.0
2017-Jun-20 22:30N 42°23' W 071°03'0 0.0
2017-Jun-20 22:00N 42°23' W 071°03'0 0.0
2017-Jun-20 21:30N 42°23' W 071°03'0 0.0
2017-Jun-20 21:00N 42°23' W 071°03'0 0.0
2017-Jun-20 20:30N 42°23' W 071°03'0 0.0
2017-Jun-20 20:00N 42°23' W 071°03'0 0.0
2017-Jun-20 19:30N 42°23' W 071°03'0 0.0
2017-Jun-20 19:00N 42°23' W 071°03'0 0.0
2017-Jun-20 18:30N 42°23' W 071°03'0 0.0
2017-Jun-20 18:00N 42°23' W 071°03'0 0.8
2017-Jun-20 17:30N 42°23' W 071°02'1 1.9
2017-Jun-20 17:01N 42°24' W 071°01'1 2.6
2017-Jun-20 16:31N 42°23' W 071°03'0 0.0
2017-Jun-20 16:00N 42°23' W 071°03'0 0.0
2017-Jun-20 15:30N 42°23' W 071°03'0 0.0
2017-Jun-20 15:00N 42°23' W 071°03'1 1.9
2017-Jun-20 14:30N 42°22' W 071°03'1 1.4
2017-Jun-20 13:31N 42°21' W 071°02'2 4.2
2017-Jun-20 13:00N 42°23' W 071°03'1 2.4
2017-Jun-20 12:31N 42°21' W 071°02'1 1.8
2017-Jun-20 12:00N 42°21' W 071°02'0 0.6
2017-Jun-20 11:30N 42°21' W 071°02'2 3.4
2017-Jun-20 11:00N 42°20' W 070°59'1 1.5
2017-Jun-20 10:30N 42°20' W 070°58'3 6.1
2017-Jun-20 10:01N 42°21' W 071°02'1 2.9
2017-Jun-20 09:30N 42°23' W 071°03'1 1.3
2017-Jun-20 09:00N 42°23' W 071°02'1 2.0
2017-Jun-20 08:30N 42°24' W 071°01'1 2.1
2017-Jun-20 08:00N 42°23' W 071°02'0 0.5
2017-Jun-20 07:30N 42°23' W 071°01'1 1.7
2017-Jun-20 07:01N 42°24' W 071°01'2 3.4
2017-Jun-20 06:31N 42°23' W 071°03'2 4.5
2017-Jun-20 06:00N 42°21' W 071°01'2 4.3
2017-Jun-20 05:30N 42°23' W 071°03'0 0.7
2017-Jun-20 05:00N 42°23' W 071°03'0 0.6
2017-Jun-20 04:30N 42°23' W 071°03'1 2.7
2017-Jun-20 04:00N 42°24' W 071°01'0 0.2
2017-Jun-20 03:30N 42°24' W 071°01'2 3.4
2017-Jun-20 03:01N 42°23' W 071°03'0 0.3
2017-Jun-20 02:31N 42°22' W 071°03'1 2.4
2017-Jun-20 02:00N 42°21' W 071°02'4 8.6
2017-Jun-20 01:30N 42°20' W 070°57'5 9.0
2017-Jun-20 01:00N 42°16' W 070°56'2 3.6
2017-Jun-20 00:31N 42°14' W 070°58'0 0.2
2017-Jun-19 23:59N 42°14' W 070°58'1 1.3
2017-Jun-19 23:30N 42°15' W 070°58'3 5.0
2017-Jun-19 23:00N 42°17' W 070°56'3 5.1
2017-Jun-19 22:30N 42°19' W 070°54'5 9.9
2017-Jun-19 22:00N 42°21' W 071°01'0 0.8
2017-Jun-19 21:31N 42°21' W 071°01'0 0.1
2017-Jun-19 21:01N 42°21' W 071°01'3 4.6
2017-Jun-19 20:27N 42°23' W 071°03'0 0.0
2017-Jun-19 19:55N 42°23' W 071°03'0 0.0
2017-Jun-19 19:26N 42°23' W 071°03'0 0.1
2017-Jun-19 19:00N 42°23' W 071°03'0 0.0
2017-Jun-19 18:30N 42°23' W 071°03'0 0.0
2017-Jun-19 18:00N 42°23' W 071°03'0 0.0
2017-Jun-19 17:30N 42°23' W 071°03'1 1.1
2017-Jun-19 17:00N 42°23' W 071°03'1 1.1
2017-Jun-19 16:30N 42°23' W 071°03'0 0.0
2017-Jun-19 16:00N 42°23' W 071°03'0 0.0
2017-Jun-19 15:30N 42°23' W 071°03'0 0.0
2017-Jun-19 15:00N 42°23' W 071°03'0 0.0
2017-Jun-19 14:26N 42°23' W 071°03'0 0.0
2017-Jun-19 13:30N 42°23' W 071°03'0 0.0
2017-Jun-19 13:00N 42°23' W 071°03'0 0.0
2017-Jun-19 12:30N 42°23' W 071°03'0 0.0
2017-Jun-19 12:00N 42°23' W 071°03'2 3.6
2017-Jun-19 11:30N 42°21' W 071°02'1 1.6
2017-Jun-19 11:00N 42°21' W 071°01'1 1.7
2017-Jun-19 10:30N 42°20' W 071°00'1 1.5
2017-Jun-19 10:00N 42°21' W 071°01'0 0.4
2017-Jun-19 09:30N 42°21' W 071°01'0 0.1
2017-Jun-19 09:01N 42°21' W 071°01'0 0.4
2017-Jun-19 08:30N 42°21' W 071°01'0 0.0
2017-Jun-19 08:01N 42°21' W 071°01'2 3.6
2017-Jun-19 07:30N 42°22' W 071°03'1 2.7
2017-Jun-19 07:00N 42°23' W 071°02'0 0.0
2017-Jun-19 06:28N 42°23' W 071°02'1 1.8
2017-Jun-19 06:00N 42°23' W 071°03'0 0.0
2017-Jun-19 05:30N 42°23' W 071°03'0 0.0
2017-Jun-19 05:00N 42°23' W 071°03'0 0.0
2017-Jun-19 04:30N 42°23' W 071°03'0 0.0
2017-Jun-19 04:00N 42°23' W 071°03'0 0.0
2017-Jun-19 03:30N 42°23' W 071°03'0 0.0
2017-Jun-19 03:00N 42°23' W 071°03'0 0.0
2017-Jun-19 02:30N 42°23' W 071°03'0 0.0
2017-Jun-19 02:00N 42°23' W 071°03'0 0.0
2017-Jun-19 01:30N 42°23' W 071°03'0 0.0
2017-Jun-19 01:00N 42°23' W 071°03'0 0.0
2017-Jun-19 00:31N 42°23' W 071°03'0 0.0
2017-Jun-19 00:00N 42°23' W 071°03'0 0.0
2017-Jun-18 23:30N 42°23' W 071°03'0 0.0
2017-Jun-18 23:00N 42°23' W 071°03'0 0.0
2017-Jun-18 22:30N 42°23' W 071°03'1 2.8
2017-Jun-18 22:00N 42°21' W 071°02'1 2.8
2017-Jun-18 21:30N 42°23' W 071°03'0 0.0
2017-Jun-18 21:00N 42°23' W 071°03'0 0.0
2017-Jun-18 20:30N 42°23' W 071°03'0 0.0
2017-Jun-18 20:00N 42°23' W 071°03'0 0.0
2017-Jun-18 19:30N 42°23' W 071°03'0 0.0
2017-Jun-18 19:01N 42°23' W 071°03'4 7.3
2017-Jun-18 18:30N 42°20' W 070°59'3 6.6
2017-Jun-18 18:00N 42°18' W 070°56'4 7.2
2017-Jun-18 17:30N 42°15' W 070°57'0 0.9
2017-Jun-18 16:57N 42°15' W 070°58'0 0.9
2017-Jun-18 16:30N 42°15' W 070°58'0 0.0
2017-Jun-18 15:50N 42°15' W 070°58'0 0.0
2017-Jun-18 15:29N 42°15' W 070°58'0 0.0
2017-Jun-18 15:01N 42°15' W 070°58'3 3.1
2017-Jun-18 14:00N 42°17' W 070°56'3 6.1
2017-Jun-18 13:30N 42°15' W 070°58'0 0.8
2017-Jun-18 13:00N 42°14' W 070°58'0 0.3
2017-Jun-18 11:32N 42°15' W 070°58'0 0.0
2017-Jun-18 11:30N 42°15' W 070°58'0 0.0
2017-Jun-18 10:55N 42°15' W 070°58'2 4.5
2017-Jun-18 10:30N 42°16' W 070°56'4 8.5
2017-Jun-18 10:00N 42°20' W 070°56'3 6.9
2017-Jun-18 09:30N 42°21' W 071°01'2 4.4
2017-Jun-18 09:00N 42°20' W 070°58'2 4.7
2017-Jun-18 08:30N 42°21' W 071°01'0 0.0
2017-Jun-18 08:00N 42°21' W 071°01'0 0.7
2017-Jun-18 07:30N 42°21' W 071°01'0 0.4
2017-Jun-18 07:00N 42°21' W 071°01'2 4.9
2017-Jun-18 06:30N 42°23' W 071°03'0 0.3
2017-Jun-18 06:00N 42°23' W 071°03'0 0.0
2017-Jun-18 05:31N 42°23' W 071°03'2 4.2
2017-Jun-18 05:00N 42°21' W 071°01'2 3.8
2017-Jun-18 04:30N 42°22' W 071°03'0 0.8
2017-Jun-18 04:00N 42°23' W 071°03'0 0.0
2017-Jun-18 03:30N 42°23' W 071°03'0 0.0
2017-Jun-18 03:00N 42°23' W 071°03'0 0.0
2017-Jun-18 02:30N 42°23' W 071°03'0 0.1
2017-Jun-18 02:00N 42°23' W 071°03'1 1.3
2017-Jun-18 01:30N 42°23' W 071°02'0 0.3
2017-Jun-18 00:46N 42°23' W 071°02'1 3.0
2017-Jun-18 00:30N 42°23' W 071°03'4 7.3
2017-Jun-18 00:00N 42°20' W 070°60'4 7.7
2017-Jun-17 23:30N 42°18' W 070°55'3 3.3
2017-Jun-17 22:28N 42°15' W 070°58'2 4.7
2017-Jun-17 22:01N 42°17' W 070°56'3 5.3
2017-Jun-17 21:30N 42°19' W 070°54'4 8.1
2017-Jun-17 21:00N 42°15' W 070°57'2 3.3
2017-Jun-17 20:31N 42°14' W 070°58'1 2.4
2017-Jun-17 20:01N 42°15' W 070°57'4 8.0
2017-Jun-17 19:30N 42°19' W 070°55'1 2.6
2017-Jun-17 19:00N 42°20' W 070°56'4 8.1
2017-Jun-17 18:30N 42°21' W 071°02'0 0.5
2017-Jun-17 18:00N 42°21' W 071°02'0 0.0
2017-Jun-17 17:30N 42°21' W 071°02'0 0.8
2017-Jun-17 17:00N 42°21' W 071°01'0 0.1
2017-Jun-17 16:31N 42°21' W 071°01'0 0.0
2017-Jun-17 16:00N 42°21' W 071°01'0 0.0
2017-Jun-17 15:30N 42°21' W 071°01'0 0.0
2017-Jun-17 15:00N 42°21' W 071°01'0 0.4
2017-Jun-17 14:01N 42°21' W 071°02'0 0.0
2017-Jun-17 13:30N 42°21' W 071°02'0 0.0
2017-Jun-17 13:00N 42°21' W 071°02'0 0.0
2017-Jun-17 12:30N 42°21' W 071°02'0 0.0
2017-Jun-17 12:00N 42°21' W 071°02'0 0.0
2017-Jun-17 11:30N 42°21' W 071°02'1 1.1
2017-Jun-17 11:00N 42°21' W 071°01'0 0.4
2017-Jun-17 10:30N 42°21' W 071°01'2 4.2
2017-Jun-17 10:01N 42°20' W 070°58'4 8.1
2017-Jun-17 09:31N 42°22' W 071°03'2 3.0
2017-Jun-17 09:00N 42°23' W 071°01'1 2.4
2017-Jun-17 08:30N 42°23' W 071°03'2 3.0
2017-Jun-17 08:00N 42°21' W 071°02'2 3.6
2017-Jun-17 07:30N 42°23' W 071°02'1 1.5
2017-Jun-17 07:01N 42°23' W 071°01'1 1.6
2017-Jun-17 06:30N 42°23' W 071°03'0 0.3
2017-Jun-17 05:43N 42°23' W 071°03'0 0.0
2017-Jun-17 05:29N 42°23' W 071°03'0 0.0
2017-Jun-17 04:58N 42°23' W 071°03'0 0.0
2017-Jun-17 04:30N 42°23' W 071°03'0 0.0
2017-Jun-17 04:01N 42°23' W 071°03'0 0.0
2017-Jun-17 03:16N 42°23' W 071°03'0 0.0
2017-Jun-17 03:00N 42°23' W 071°03'0 0.0
2017-Jun-17 02:30N 42°23' W 071°03'1 1.6
2017-Jun-17 02:01N 42°23' W 071°03'1 1.6
2017-Jun-17 01:30N 42°23' W 071°03'0 0.0
2017-Jun-17 01:01N 42°23' W 071°03'0 0.0
2017-Jun-17 00:29N 42°23' W 071°03'0 0.0
2017-Jun-17 00:00N 42°23' W 071°03'0 0.1
2017-Jun-16 23:30N 42°23' W 071°03'0 0.0
2017-Jun-16 23:00N 42°23' W 071°03'0 0.0
2017-Jun-16 22:29N 42°23' W 071°03'0 0.0
2017-Jun-16 21:55N 42°23' W 071°03'0 0.0
2017-Jun-16 21:27N 42°23' W 071°03'0 0.0
2017-Jun-16 20:57N 42°23' W 071°03'0 0.0
2017-Jun-16 20:21N 42°23' W 071°03'0 0.0
2017-Jun-16 20:00N 42°23' W 071°03'0 0.0
2017-Jun-16 19:30N 42°23' W 071°03'2 3.3
2017-Jun-16 19:00N 42°21' W 071°02'1 1.3
2017-Jun-16 18:30N 42°21' W 071°02'0 0.6
2017-Jun-16 18:00N 42°21' W 071°01'0 0.0
2017-Jun-16 17:30N 42°21' W 071°01'0 0.0
2017-Jun-16 17:00N 42°21' W 071°01'0 0.0
2017-Jun-16 16:30N 42°21' W 071°01'1 1.4
2017-Jun-16 16:00N 42°21' W 071°02'2 3.4
2017-Jun-16 15:30N 42°23' W 071°03'0 0.0
2017-Jun-16 15:00N 42°23' W 071°03'0 0.0
2017-Jun-16 14:30N 42°23' W 071°03'  

Dump ship's entire track history